Time,TemperatureF,DewpointF,PressureIn,WindDirection,WindDirectionDegrees,WindSpeedMPH,WindSpeedGustMPH,Humidity,HourlyPrecipIn,Conditions,Clouds,dailyrainin,SoftwareType,DateUTC
2013-01-19 00:04:00,29.0,24.0,-100.00,SSW,196,1.0,2.0,80,0.00,,,-99.99,,2013-01-19 05:04:00,
2013-01-19 00:13:00,29.0,24.0,-100.00,SSW,196,1.0,2.0,80,0.00,,,-99.99,,2013-01-19 05:13:00,
2013-01-19 00:23:00,27.0,24.0,-100.00,SE,128,1.0,2.0,87,0.00,,,-99.99,,2013-01-19 05:23:00,
2013-01-19 00:33:00,27.0,24.0,-100.00,South,176,0.0,1.0,88,0.00,,,-99.99,,2013-01-19 05:33:00,
2013-01-19 00:43:00,27.0,24.0,-100.00,South,176,0.0,1.0,88,0.00,,,-99.99,,2013-01-19 05:43:00,
2013-01-19 00:53:00,27.0,24.0,-100.00,South,176,0.0,1.0,88,0.00,,,-99.99,,2013-01-19 05:53:00,
2013-01-19 01:03:00,29.0,25.0,-100.00,NW,311,2.0,4.0,86,0.00,,,-99.99,,2013-01-19 06:03:00,
2013-01-19 01:12:00,29.0,25.0,-100.00,NW,311,2.0,4.0,86,0.00,,,-99.99,,2013-01-19 06:12:00,
2013-01-19 01:23:00,27.0,24.0,-100.00,SSW,203,0.0,1.0,88,0.00,,,-99.99,,2013-01-19 06:23:00,
2013-01-19 01:33:00,27.0,24.0,-100.00,North,1,0.0,0.0,89,0.00,,,-99.99,,2013-01-19 06:33:00,
2013-01-19 01:43:00,27.0,24.0,-100.00,North,1,0.0,0.0,89,0.00,,,-99.99,,2013-01-19 06:43:00,
2013-01-19 01:53:00,27.0,24.0,-100.00,North,1,0.0,0.0,89,0.00,,,-99.99,,2013-01-19 06:53:00,
2013-01-19 02:02:00,28.0,25.0,-100.00,NW,319,2.0,4.0,88,0.00,,,-99.99,,2013-01-19 07:02:00,
2013-01-19 02:12:00,28.0,25.0,-100.00,NW,319,2.0,4.0,88,0.00,,,-99.99,,2013-01-19 07:12:00,
2013-01-19 02:23:00,28.0,24.0,-100.00,NW,304,1.0,2.0,85,0.00,,,-99.99,,2013-01-19 07:23:00,
2013-01-19 02:33:00,28.0,24.0,-100.00,NW,316,4.0,5.0,86,0.00,,,-99.99,,2013-01-19 07:33:00,
2013-01-19 02:43:00,28.0,24.0,-100.00,NW,316,4.0,5.0,86,0.00,,,-99.99,,2013-01-19 07:43:00,
2013-01-19 02:53:00,28.0,24.0,-100.00,NW,316,4.0,5.0,86,0.00,,,-99.99,,2013-01-19 07:53:00,
2013-01-19 03:02:00,29.0,24.0,-100.00,West,274,2.0,3.0,84,0.00,,,-99.99,,2013-01-19 08:02:00,
2013-01-19 03:12:00,29.0,24.0,-100.00,West,274,2.0,3.0,84,0.00,,,-99.99,,2013-01-19 08:12:00,
2013-01-19 03:22:00,27.0,23.0,-100.00,ENE,72,1.0,1.0,86,0.00,,,-99.99,,2013-01-19 08:22:00,
2013-01-19 03:33:00,26.0,23.0,-100.00,NNW,329,1.0,2.0,88,0.00,,,-99.99,,2013-01-19 08:33:00,
2013-01-19 03:43:00,26.0,23.0,-100.00,NNW,329,1.0,2.0,88,0.00,,,-99.99,,2013-01-19 08:43:00,
2013-01-19 03:53:00,26.0,23.0,-100.00,NNW,329,1.0,2.0,88,0.00,,,-99.99,,2013-01-19 08:53:00,
2013-01-19 04:12:00,26.0,23.0,-100.00,WSW,244,0.0,1.0,87,0.00,,,-99.99,,2013-01-19 09:12:00,
2013-01-19 04:23:00,26.0,24.0,-100.00,NW,323,1.0,2.0,89,0.00,,,-99.99,,2013-01-19 09:23:00,
2013-01-19 04:33:00,26.0,23.0,-100.00,NNE,13,0.0,1.0,90,0.00,,,-99.99,,2013-01-19 09:33:00,
2013-01-19 04:43:00,26.0,23.0,-100.00,NNE,13,0.0,1.0,90,0.00,,,-99.99,,2013-01-19 09:43:00,
2013-01-19 04:53:00,26.0,23.0,-100.00,NNE,13,0.0,1.0,90,0.00,,,-99.99,,2013-01-19 09:53:00,
2013-01-19 05:02:00,26.0,23.0,-100.00,NW,319,1.0,1.0,91,0.00,,,-99.99,,2013-01-19 10:02:00,
2013-01-19 05:12:00,26.0,23.0,-100.00,NW,319,1.0,1.0,91,0.00,,,-99.99,,2013-01-19 10:12:00,
2013-01-19 05:23:00,25.0,23.0,-100.00,NNW,346,0.0,1.0,92,0.00,,,-99.99,,2013-01-19 10:23:00,
2013-01-19 05:33:00,25.0,23.0,-100.00,NNW,346,0.0,1.0,92,0.00,,,-99.99,,2013-01-19 10:33:00,
2013-01-19 05:43:00,25.0,23.0,-100.00,NNW,346,0.0,1.0,92,0.00,,,-99.99,,2013-01-19 10:43:00,
2013-01-19 05:53:00,26.0,23.0,-100.00,NNW,328,1.0,2.0,90,0.00,,,-99.99,,2013-01-19 10:53:00,
2013-01-19 06:03:00,26.0,23.0,-100.00,NNW,328,1.0,2.0,90,0.00,,,-99.99,,2013-01-19 11:03:00,
2013-01-19 06:12:00,26.0,23.0,-100.00,NNW,328,1.0,2.0,90,0.00,,,-99.99,,2013-01-19 11:12:00,
2013-01-19 06:22:00,24.0,21.0,-100.00,SW,219,0.0,2.0,88,0.00,,,-99.99,,2013-01-19 11:22:00,
2013-01-19 07:48:00,25.0,23.0,-100.00,NNW,328,2.0,3.0,91,0.00,,,-99.99,,2013-01-19 12:48:00,
2013-01-19 07:53:00,25.0,23.0,-100.00,NNW,328,2.0,3.0,91,0.00,,,-99.99,,2013-01-19 12:53:00,
2013-01-19 08:03:00,25.0,22.0,-100.00,West,274,0.0,2.0,90,0.00,,,-99.99,,2013-01-19 13:03:00,
2013-01-19 08:13:00,25.0,22.0,-100.00,West,274,0.0,2.0,90,0.00,,,-99.99,,2013-01-19 13:13:00,
2013-01-19 08:23:00,25.0,22.0,-100.00,SSW,193,0.0,0.0,89,0.00,,,-99.99,,2013-01-19 13:23:00,
2013-01-19 08:34:00,28.0,24.0,-100.00,WSW,253,1.0,2.0,84,0.00,,,-99.99,,2013-01-19 13:34:00,
2013-01-19 08:43:00,28.0,24.0,-100.00,WSW,253,1.0,2.0,84,0.00,,,-99.99,,2013-01-19 13:43:00,
2013-01-19 08:54:00,29.0,24.0,-100.00,WNW,299,3.0,6.0,83,0.00,,,-99.99,,2013-01-19 13:54:00,
2013-01-19 09:03:00,29.0,24.0,-100.00,WNW,299,3.0,6.0,83,0.00,,,-99.99,,2013-01-19 14:03:00,
2013-01-19 09:13:00,29.0,24.0,-100.00,WNW,299,3.0,6.0,83,0.00,,,-99.99,,2013-01-19 14:13:00,
2013-01-19 09:23:00,30.0,23.0,-100.00,West,265,5.0,8.0,75,0.00,,,-99.99,,2013-01-19 14:23:00,
2013-01-19 09:34:00,31.0,23.0,-100.00,WNW,284,6.0,9.0,74,0.00,,,-99.99,,2013-01-19 14:34:00,
2013-01-19 09:43:00,31.0,23.0,-100.00,WNW,284,6.0,9.0,74,0.00,,,-99.99,,2013-01-19 14:43:00,
2013-01-19 09:54:00,31.0,23.0,-100.00,WNW,284,6.0,9.0,74,0.00,,,-99.99,,2013-01-19 14:54:00,
2013-01-19 10:03:00,34.0,24.0,-100.00,SW,222,1.0,4.0,66,0.00,,,-99.99,,2013-01-19 15:03:00,
2013-01-19 10:13:00,34.0,24.0,-100.00,SW,222,1.0,4.0,66,0.00,,,-99.99,,2013-01-19 15:13:00,
2013-01-19 10:23:00,35.0,24.0,-100.00,West,265,2.0,4.0,63,0.00,,,-99.99,,2013-01-19 15:23:00,
2013-01-19 10:33:00,38.0,24.0,-100.00,North,357,2.0,4.0,57,0.00,,,-99.99,,2013-01-19 15:33:00,
2013-01-19 10:43:00,38.0,24.0,-100.00,North,357,2.0,4.0,57,0.00,,,-99.99,,2013-01-19 15:43:00,
2013-01-19 10:53:00,38.0,24.0,-100.00,North,357,2.0,4.0,57,0.00,,,-99.99,,2013-01-19 15:53:00,
2013-01-19 11:03:00,40.0,26.0,-100.00,SW,217,1.0,2.0,59,0.00,,,-99.99,,2013-01-19 16:03:00,
2013-01-19 11:13:00,40.0,26.0,-100.00,SW,217,1.0,2.0,59,0.00,,,-99.99,,2013-01-19 16:13:00,
2013-01-19 11:23:00,40.0,25.0,-100.00,West,278,6.0,9.0,55,0.00,,,-99.99,,2013-01-19 16:23:00,
2013-01-19 11:33:00,40.0,24.0,-100.00,WNW,288,8.0,12.0,52,0.00,,,0.05,,2013-01-19 16:33:00,
2013-01-19 11:43:00,40.0,24.0,-100.00,WNW,288,8.0,12.0,52,0.00,,,0.05,,2013-01-19 16:43:00,
2013-01-19 11:54:00,40.0,24.0,-100.00,WNW,288,8.0,12.0,52,0.00,,,0.05,,2013-01-19 16:54:00,
2013-01-19 12:03:00,42.0,24.0,-100.00,West,272,7.0,10.0,50,0.00,,,0.04,,2013-01-19 17:03:00,
2013-01-19 12:29:00,42.0,26.0,-100.00,West,267,6.0,9.0,52,0.00,,,0.02,,2013-01-19 17:29:00,
2013-01-19 12:37:00,43.0,25.0,-100.00,West,264,5.0,7.0,49,0.00,,,0.02,,2013-01-19 17:37:00,
2013-01-19 12:49:00,43.0,25.0,-100.00,West,264,5.0,7.0,49,0.00,,,0.02,,2013-01-19 17:49:00,
2013-01-19 12:55:00,43.0,25.0,-100.00,West,264,5.0,7.0,49,0.00,,,0.02,,2013-01-19 17:55:00,
2013-01-19 13:02:00,45.0,25.0,-100.00,West,274,5.0,9.0,45,0.00,,,0.00,,2013-01-19 18:02:00,
2013-01-19 13:12:00,43.0,25.0,-100.00,West,260,6.0,10.0,48,0.00,,,0.00,,2013-01-19 18:12:00,
2013-01-19 13:22:00,46.0,25.0,-100.00,SW,234,6.0,11.0,42,0.00,,,0.00,,2013-01-19 18:22:00,
2013-01-19 13:29:00,45.0,26.0,-100.00,WSW,239,5.0,8.0,48,0.00,,,0.00,,2013-01-19 18:29:00,
2013-01-19 13:37:00,45.0,25.0,-100.00,West,274,5.0,9.0,45,0.00,,,0.00,,2013-01-19 18:37:00,
2013-01-19 13:46:00,45.0,25.0,-100.00,West,274,5.0,9.0,45,0.00,,,0.00,,2013-01-19 18:46:00,
2013-01-19 14:10:00,46.0,25.0,-100.00,SW,234,6.0,11.0,42,0.00,,,0.00,,2013-01-19 19:10:00,
2013-01-19 14:31:00,47.0,26.0,-100.00,WSW,254,5.0,7.0,42,0.00,,,0.00,,2013-01-19 19:31:00,
2013-01-19 14:40:00,48.0,25.0,-100.00,SSW,210,5.0,8.0,41,0.00,,,0.00,,2013-01-19 19:40:00,
2013-01-19 14:48:00,48.0,25.0,-100.00,SSW,210,5.0,8.0,41,0.00,,,0.00,,2013-01-19 19:48:00,
2013-01-19 14:59:00,48.0,25.0,-100.00,SSW,210,5.0,8.0,41,0.00,,,0.00,,2013-01-19 19:59:00,
2013-01-19 15:10:00,49.0,25.0,-100.00,WSW,251,4.0,6.0,39,0.00,,,0.00,,2013-01-19 20:10:00,
2013-01-19 15:20:00,49.0,25.0,-100.00,WSW,251,4.0,6.0,39,0.00,,,0.00,,2013-01-19 20:20:00,
2013-01-19 15:27:00,50.0,25.0,-100.00,West,264,4.0,6.0,38,0.00,,,0.00,,2013-01-19 20:27:00,
2013-01-19 15:39:00,50.0,21.0,-100.00,West,280,5.0,7.0,31,0.00,,,0.00,,2013-01-19 20:39:00,
2013-01-19 15:49:00,50.0,21.0,-100.00,West,280,5.0,7.0,31,0.00,,,0.00,,2013-01-19 20:49:00,
2013-01-19 15:59:00,50.0,21.0,-100.00,West,280,5.0,7.0,31,0.00,,,0.00,,2013-01-19 20:59:00,
2013-01-19 16:07:00,49.0,20.0,-100.00,West,275,8.0,12.0,31,0.00,,,0.00,,2013-01-19 21:07:00,
2013-01-19 16:15:00,49.0,20.0,-100.00,West,275,8.0,12.0,31,0.00,,,0.00,,2013-01-19 21:15:00,
2013-01-19 16:29:00,50.0,21.0,-100.00,West,272,8.0,11.0,32,0.00,,,0.00,,2013-01-19 21:29:00,
2013-01-19 16:46:00,50.0,22.0,-100.00,West,260,5.0,7.0,32,0.00,,,0.00,,2013-01-19 21:46:00,
2013-01-19 16:52:00,50.0,22.0,-100.00,West,260,5.0,7.0,32,0.00,,,0.00,,2013-01-19 21:52:00,
2013-01-19 17:01:00,50.0,22.0,-100.00,West,260,5.0,7.0,32,0.00,,,0.00,,2013-01-19 22:01:00,
2013-01-19 17:15:00,50.0,21.0,-100.00,WSW,246,6.0,9.0,31,0.00,,,0.00,,2013-01-19 22:15:00,
2013-01-19 17:28:00,50.0,20.0,-100.00,West,265,4.0,7.0,31,0.00,,,0.00,,2013-01-19 22:28:00,
2013-01-19 17:35:00,50.0,20.0,-100.00,West,265,4.0,7.0,31,0.00,,,0.00,,2013-01-19 22:35:00,
2013-01-19 17:48:00,49.0,20.0,-100.00,WSW,250,6.0,9.0,31,0.00,,,0.00,,2013-01-19 22:48:00,
2013-01-19 17:59:00,49.0,20.0,-100.00,WSW,250,6.0,9.0,31,0.00,,,0.00,,2013-01-19 22:59:00,
2013-01-19 18:02:00,45.0,21.0,-100.00,NW,322,3.0,4.0,38,0.00,,,0.00,,2013-01-19 23:02:00,
2013-01-19 18:14:00,48.0,19.0,-100.00,West,261,4.0,6.0,32,0.00,,,0.00,,2013-01-19 23:14:00,
2013-01-19 18:28:00,47.0,19.0,-100.00,West,274,2.0,4.0,33,0.00,,,0.00,,2013-01-19 23:28:00,
2013-01-19 18:35:00,45.0,21.0,-100.00,NW,322,3.0,4.0,38,0.00,,,0.00,,2013-01-19 23:35:00,
2013-01-19 18:47:00,45.0,21.0,-100.00,NW,322,3.0,4.0,38,0.00,,,0.00,,2013-01-19 23:47:00,
2013-01-19 19:09:00,44.0,22.0,-100.00,NW,320,3.0,5.0,42,0.00,,,0.00,,2013-01-20 00:09:00,
2013-01-19 19:17:00,44.0,22.0,-100.00,NW,320,3.0,5.0,42,0.00,,,0.00,,2013-01-20 00:17:00,
2013-01-19 19:22:00,40.0,24.0,-100.00,NW,308,0.0,1.0,52,0.00,,,0.00,,2013-01-20 00:22:00,
2013-01-19 19:37:00,43.0,22.0,-100.00,NW,312,4.0,6.0,43,0.00,,,0.00,,2013-01-20 00:37:00,
2013-01-19 19:47:00,43.0,22.0,-100.00,NW,312,4.0,6.0,43,0.00,,,0.00,,2013-01-20 00:47:00,
2013-01-19 19:58:00,43.0,22.0,-100.00,NW,312,4.0,6.0,43,0.00,,,0.00,,2013-01-20 00:58:00,
2013-01-19 20:02:00,39.0,25.0,-100.00,NNW,330,2.0,3.0,55,0.00,,,0.00,,2013-01-20 01:02:00,
2013-01-19 20:04:00,40.0,24.0,-100.00,NW,308,0.0,1.0,52,0.00,,,0.00,,2013-01-20 01:04:00,
2013-01-19 20:28:00,40.0,24.0,-100.00,NNW,344,2.0,3.0,53,0.00,,,0.00,,2013-01-20 01:28:00,
2013-01-19 20:38:00,40.0,24.0,-100.00,NNW,344,2.0,3.0,53,0.00,,,0.00,,2013-01-20 01:38:00,
2013-01-19 20:49:00,39.0,25.0,-100.00,NNW,330,2.0,3.0,55,0.00,,,0.00,,2013-01-20 01:49:00,
2013-01-19 21:09:00,40.0,25.0,-100.00,NW,325,4.0,5.0,54,0.00,,,0.00,,2013-01-20 02:09:00,
2013-01-19 21:15:00,40.0,25.0,-100.00,NW,325,4.0,5.0,54,0.00,,,0.00,,2013-01-20 02:15:00,
2013-01-19 21:37:00,40.0,26.0,-100.00,NW,309,4.0,8.0,57,0.00,,,0.00,,2013-01-20 02:37:00,
2013-01-19 21:45:00,40.0,26.0,-100.00,NW,309,4.0,8.0,57,0.00,,,0.00,,2013-01-20 02:45:00,
2013-01-19 21:59:00,40.0,26.0,-100.00,NW,309,4.0,8.0,57,0.00,,,0.00,,2013-01-20 02:59:00,
2013-01-19 22:09:00,41.0,26.0,-100.00,West,277,4.0,6.0,56,0.00,,,0.00,,2013-01-20 03:09:00,
2013-01-19 22:15:00,41.0,26.0,-100.00,West,277,4.0,6.0,56,0.00,,,0.00,,2013-01-20 03:15:00,
2013-01-19 22:39:00,41.0,26.0,-100.00,WNW,282,4.0,7.0,55,0.00,,,0.00,,2013-01-20 03:39:00,
2013-01-19 22:58:00,41.0,26.0,-100.00,WNW,282,4.0,7.0,55,0.00,,,0.00,,2013-01-20 03:58:00,
2013-01-19 23:05:00,41.0,25.0,-100.00,WNW,288,6.0,8.0,53,0.00,,,0.00,,2013-01-20 04:05:00,
2013-01-19 23:15:00,41.0,25.0,-100.00,WNW,288,6.0,8.0,53,0.00,,,0.00,,2013-01-20 04:15:00,
2013-01-19 23:28:00,40.0,25.0,-100.00,WNW,287,3.0,5.0,54,0.00,,,0.00,,2013-01-20 04:28:00,
2013-01-19 23:38:00,40.0,25.0,-100.00,WNW,299,5.0,9.0,56,0.00,,,0.00,,2013-01-20 04:38:00,
2013-01-19 23:45:00,40.0,25.0,-100.00,WNW,299,5.0,9.0,56,0.00,,,0.00,,2013-01-20 04:45:00,